Site Report
Select Start Month: Select End Month:
Orange County Marathon (Jan 05, 2008 - Jan 07, 2008)
Orange County Marathon (CASWOCMA) Irvine, CA (USA) Lat,Long: 33.66463,-117.86324 Map 29 species 1 trip (0 non-trip sightings)
The Orange County marathon route runs from Fashion Center at Newport Beach inland through residential, agricultural and light industrial areas to Gateway Center in Irvine. Several miles of the course border a brushy wildlife area; a couple of miles follow landscaped bike trails and several more miles are on landscaped freeways. The course parallels concrete channeled streams for a mile or two in several places. Native chapparal vegetation approaches as close as a half mile to the course, although in that area recent fires had burned it all.
Species Sightings Trips First Date Last Date Avg/Sighting Avg/Trip Max Ct
American Wigeon 1   1 01/06/2008 01/06/2008 8.0 8.0 8
Mallard 1   1 01/06/2008 01/06/2008 15.0 15.0 15
Cinnamon Teal 1   1 01/06/2008 01/06/2008 10.0 10.0 10
Pied-billed Grebe 1   1 01/06/2008 01/06/2008 1.0 1.0 1
Double-crested Cormorant 1   1 01/06/2008 01/06/2008 1.0 1.0 1
Great Egret 1   1 01/06/2008 01/06/2008 2.0 2.0 2
Turkey Vulture 1   1 01/06/2008 01/06/2008 2.0 2.0 2
Sharp-shinned Hawk 1   1 01/06/2008 01/06/2008 1.0 1.0 1
Red-tailed Hawk 1   1 01/06/2008 01/06/2008 3.0 3.0 3
American Coot 1   1 01/06/2008 01/06/2008 15.0 15.0 15
Ring-billed Gull 1   1 01/06/2008 01/06/2008 15.0 15.0 15
Western Gull 1   1 01/06/2008 01/06/2008 20.0 20.0 20
Rock Pigeon 1   1 01/06/2008 01/06/2008 4.0 4.0 4
Mourning Dove 1   1 01/06/2008 01/06/2008 10.0 10.0 10
Anna's Hummingbird 1   1 01/06/2008 01/06/2008 20.0 20.0 20
Black Phoebe 1   1 01/06/2008 01/06/2008 15.0 15.0 15
Cassin's Kingbird 1   1 01/06/2008 01/06/2008 5.0 5.0 5
American Crow 1   1 01/06/2008 01/06/2008 15.0 15.0 15
Common Raven 1   1 01/06/2008 01/06/2008 6.0 6.0 6
Bushtit 1   1 01/06/2008 01/06/2008 20.0 20.0 20
Western Bluebird 1   1 01/06/2008 01/06/2008 6.0 6.0 6
Wrentit 1   1 01/06/2008 01/06/2008 2.0 2.0 2
Northern Mockingbird 1   1 01/06/2008 01/06/2008 1.0 1.0 1
European Starling 1   1 01/06/2008 01/06/2008 25.0 25.0 25
Yellow-rumped Warbler 1   1 01/06/2008 01/06/2008 50.0 50.0 50
Song Sparrow 1   1 01/06/2008 01/06/2008 5.0 5.0 5
White-crowned Sparrow 1   1 01/06/2008 01/06/2008 5.0 5.0 5
House Finch 1   1 01/06/2008 01/06/2008 15.0 15.0 15
House Sparrow 1   1 01/06/2008 01/06/2008 10.0 10.0 10
Home